createdAt,value
2018-12-31T00:00:55.925Z,6.67
2018-12-31T00:03:56.010Z,5.30
2018-12-31T00:06:55.439Z,7.67
2018-12-31T00:09:54.967Z,5.87
2018-12-31T00:12:54.999Z,8.53
2018-12-31T00:15:55.103Z,7.57
2018-12-31T00:18:55.221Z,6.97
2018-12-31T00:21:54.564Z,7.23
2018-12-31T00:24:54.059Z,7.80
2018-12-31T00:27:53.271Z,7.07
2018-12-31T00:30:53.154Z,8.23
2018-12-31T00:33:53.046Z,8.47
2018-12-31T00:37:00.006Z,7.00
2018-12-31T00:40:02.520Z,6.17
2018-12-31T00:43:02.734Z,7.33
2018-12-31T00:46:03.094Z,6.30
2018-12-31T00:49:03.127Z,6.37
2018-12-31T00:52:02.809Z,7.00
2018-12-31T00:55:02.239Z,6.57
2018-12-31T00:58:01.587Z,7.93
2018-12-31T01:01:00.882Z,8.07
2018-12-31T01:04:00.798Z,7.53
2018-12-31T01:07:01.227Z,5.40
2018-12-31T01:10:01.483Z,6.13
2018-12-31T01:13:01.751Z,7.30
2018-12-31T01:16:01.122Z,6.83
2018-12-31T01:19:01.030Z,5.93
2018-12-31T01:22:01.404Z,5.47
2018-12-31T01:25:00.869Z,6.03
2018-12-31T01:28:00.141Z,6.27
2018-12-31T01:30:59.334Z,6.10
2018-12-31T01:34:00.170Z,6.63
2018-12-31T01:36:59.437Z,5.97
2018-12-31T01:40:00.097Z,6.80
2018-12-31T01:43:02.085Z,7.00
2018-12-31T01:46:02.085Z,6.40
2018-12-31T01:49:02.646Z,6.20
2018-12-31T01:52:01.811Z,6.20
2018-12-31T01:55:04.108Z,6.60
2018-12-31T01:58:05.793Z,7.57
2018-12-31T02:01:05.888Z,5.87
2018-12-31T02:04:05.514Z,6.87
2018-12-31T02:07:04.856Z,7.00
2018-12-31T02:10:05.402Z,7.10
2018-12-31T02:13:05.766Z,5.80
2018-12-31T02:16:05.312Z,5.47
2018-12-31T02:19:05.647Z,7.07
2018-12-31T02:22:06.057Z,5.00
2018-12-31T02:25:08.575Z,8.37
2018-12-31T02:28:07.802Z,6.40
2018-12-31T02:31:07.523Z,5.93
2018-12-31T02:34:07.251Z,6.17
2018-12-31T02:37:06.636Z,5.43
2018-12-31T02:40:06.304Z,6.50
2018-12-31T02:43:16.919Z,6.23
2018-12-31T02:46:17.450Z,7.30
2018-12-31T02:49:18.788Z,5.60
2018-12-31T02:52:18.291Z,5.60
2018-12-31T02:55:17.707Z,5.77
2018-12-31T02:58:17.069Z,5.10
2018-12-31T03:01:16.265Z,6.63
2018-12-31T03:04:15.471Z,5.93
2018-12-31T03:07:15.174Z,5.70
2018-12-31T03:10:14.855Z,5.23
2018-12-31T03:13:18.012Z,7.13
2018-12-31T03:16:17.150Z,5.57
2018-12-31T03:19:17.261Z,5.60
2018-12-31T03:22:16.746Z,5.70
2018-12-31T03:25:17.386Z,7.80
2018-12-31T03:28:16.609Z,5.40
2018-12-31T03:31:15.800Z,6.97
2018-12-31T03:34:15.475Z,5.33
2018-12-31T03:37:14.679Z,5.67
2018-12-31T03:40:14.854Z,5.17
2018-12-31T03:43:14.953Z,5.40
2018-12-31T03:46:14.144Z,4.63
2018-12-31T03:49:13.516Z,5.07
2018-12-31T03:52:19.309Z,5.10
2018-12-31T03:55:18.586Z,6.40
2018-12-31T03:58:20.069Z,5.20
2018-12-31T04:01:19.280Z,6.23
2018-12-31T04:04:18.470Z,5.63
2018-12-31T04:07:18.245Z,4.77
2018-12-31T04:10:17.440Z,6.47
2018-12-31T04:13:17.337Z,5.00
2018-12-31T04:16:16.735Z,6.73
2018-12-31T04:19:16.028Z,5.10
2018-12-31T04:22:15.511Z,6.40
2018-12-31T04:25:14.927Z,6.37
2018-12-31T04:28:14.113Z,5.03
2018-12-31T04:31:13.266Z,6.03
2018-12-31T04:34:12.478Z,4.40
2018-12-31T04:37:14.804Z,5.67
2018-12-31T04:40:14.195Z,6.30
2018-12-31T04:43:13.358Z,4.97
2018-12-31T04:46:12.540Z,6.13
2018-12-31T04:49:11.743Z,5.37
2018-12-31T04:52:11.023Z,5.30
2018-12-31T04:55:10.547Z,5.30
2018-12-31T04:58:09.728Z,5.00
2018-12-31T05:01:09.837Z,5.00
2018-12-31T05:04:09.182Z,4.77
2018-12-31T05:07:09.334Z,5.67
2018-12-31T05:10:08.499Z,4.80
2018-12-31T05:13:07.636Z,4.77
2018-12-31T05:16:08.433Z,4.53
2018-12-31T05:19:07.857Z,5.00
2018-12-31T05:22:07.342Z,5.73
2018-12-31T05:25:06.999Z,5.27
2018-12-31T05:28:06.409Z,5.43
2018-12-31T05:31:06.371Z,5.93
2018-12-31T05:34:07.672Z,6.03
2018-12-31T05:37:07.310Z,5.43
2018-12-31T05:40:07.398Z,5.30
2018-12-31T05:43:07.430Z,4.60
2018-12-31T05:46:07.445Z,5.53
2018-12-31T05:49:06.675Z,4.70
2018-12-31T05:52:06.038Z,4.17
2018-12-31T05:55:05.579Z,4.67
2018-12-31T05:58:05.035Z,6.67
2018-12-31T06:01:04.384Z,5.57
2018-12-31T06:04:03.990Z,4.80
2018-12-31T06:07:03.537Z,4.80
2018-12-31T06:10:09.938Z,6.20
2018-12-31T06:13:09.439Z,4.90
2018-12-31T06:16:08.680Z,5.03
2018-12-31T06:19:08.166Z,4.50
2018-12-31T06:22:08.547Z,4.50
2018-12-31T06:25:08.793Z,4.60
2018-12-31T06:28:08.372Z,4.63
2018-12-31T06:31:07.928Z,5.33
2018-12-31T06:34:07.210Z,6.70
2018-12-31T06:37:06.459Z,5.03
2018-12-31T06:40:06.209Z,5.03
2018-12-31T06:43:05.585Z,5.00
2018-12-31T06:46:23.292Z,6.67
2018-12-31T06:49:23.050Z,4.70
2018-12-31T06:52:22.457Z,4.40
2018-12-31T06:55:21.587Z,5.50
2018-12-31T06:58:21.858Z,4.40
2018-12-31T07:01:21.339Z,4.40
2018-12-31T07:04:21.735Z,4.90
2018-12-31T07:07:21.951Z,4.37
2018-12-31T07:10:21.189Z,6.93
2018-12-31T07:13:21.393Z,4.97
2018-12-31T07:16:21.198Z,5.60
2018-12-31T07:19:20.534Z,4.50
2018-12-31T07:22:19.712Z,4.47
2018-12-31T07:25:19.557Z,4.30
2018-12-31T07:28:21.810Z,5.63
2018-12-31T07:31:20.923Z,4.17
2018-12-31T07:34:22.920Z,4.90
2018-12-31T07:37:23.282Z,4.53
2018-12-31T07:40:22.574Z,5.60
2018-12-31T07:43:21.767Z,6.67
2018-12-31T07:46:21.218Z,5.53
2018-12-31T07:49:20.973Z,4.87
2018-12-31T07:52:20.430Z,4.67
2018-12-31T07:55:19.889Z,5.83
2018-12-31T07:58:19.364Z,4.93
2018-12-31T08:01:18.940Z,4.73
2018-12-31T08:04:19.337Z,4.17
2018-12-31T08:07:19.010Z,3.97
2018-12-31T08:10:18.227Z,4.60
2018-12-31T08:13:18.406Z,5.23
2018-12-31T08:16:17.692Z,5.07
2018-12-31T08:19:16.879Z,4.53
2018-12-31T08:22:16.069Z,6.07
2018-12-31T08:25:16.605Z,4.83
2018-12-31T08:28:16.980Z,5.10
2018-12-31T08:31:17.367Z,4.83
2018-12-31T08:34:17.368Z,4.33
2018-12-31T08:37:17.842Z,4.43
2018-12-31T08:40:17.285Z,6.10
2018-12-31T08:43:19.999Z,4.30
2018-12-31T08:46:19.808Z,4.77
2018-12-31T08:49:19.941Z,4.00
2018-12-31T08:52:19.352Z,4.80
2018-12-31T08:55:18.815Z,4.83
2018-12-31T08:58:20.172Z,4.37
2018-12-31T09:01:20.835Z,3.87
2018-12-31T09:04:20.696Z,3.67
2018-12-31T09:07:26.474Z,4.33
2018-12-31T09:10:25.912Z,4.00
2018-12-31T09:13:26.273Z,3.80
2018-12-31T09:16:25.990Z,4.83
2018-12-31T09:19:27.084Z,4.40
2018-12-31T09:22:26.598Z,3.97
2018-12-31T09:25:26.947Z,4.03
2018-12-31T09:28:26.671Z,4.20
2018-12-31T09:31:26.886Z,3.87
2018-12-31T09:34:26.446Z,3.97
2018-12-31T09:37:26.974Z,3.53
2018-12-31T09:40:27.316Z,3.87
2018-12-31T09:43:28.839Z,3.90
2018-12-31T09:46:28.387Z,3.50
2018-12-31T09:49:28.760Z,3.97
2018-12-31T09:52:28.345Z,4.00
2018-12-31T09:55:28.542Z,4.83
2018-12-31T09:58:28.819Z,3.87
2018-12-31T10:01:28.423Z,4.67
2018-12-31T10:04:28.978Z,4.57
2018-12-31T10:07:28.514Z,4.07
2018-12-31T10:10:28.133Z,3.77
2018-12-31T10:13:27.683Z,4.97
2018-12-31T10:16:27.191Z,4.00
2018-12-31T10:19:26.579Z,4.47
2018-12-31T10:22:25.790Z,4.17
2018-12-31T10:25:28.819Z,4.10
2018-12-31T10:28:29.072Z,4.10
2018-12-31T10:31:29.034Z,4.27
2018-12-31T10:34:29.778Z,4.03
2018-12-31T10:37:29.694Z,4.50
2018-12-31T10:40:32.623Z,4.20
2018-12-31T10:43:31.970Z,4.37
2018-12-31T10:46:32.097Z,4.70
2018-12-31T10:49:33.206Z,4.10
2018-12-31T10:59:32.083Z,4.03
2018-12-31T11:02:31.547Z,5.90
2018-12-31T11:05:36.045Z,4.67
2018-12-31T11:08:35.985Z,4.83
2018-12-31T11:11:35.432Z,5.30
2018-12-31T11:14:34.902Z,5.17
2018-12-31T11:17:34.606Z,4.60
2018-12-31T11:20:34.178Z,5.97
2018-12-31T11:23:33.563Z,5.00
2018-12-31T11:26:34.043Z,4.47
2018-12-31T11:29:33.542Z,4.13
2018-12-31T11:32:33.639Z,4.87
2018-12-31T11:35:33.593Z,4.57
2018-12-31T11:38:32.849Z,4.73
2018-12-31T11:41:32.252Z,5.43
2018-12-31T11:44:31.902Z,5.03
2018-12-31T11:47:31.239Z,4.47
2018-12-31T11:50:35.595Z,4.93
2018-12-31T11:53:35.500Z,4.53
2018-12-31T11:56:41.304Z,5.00
2018-12-31T11:59:40.790Z,4.03
2018-12-31T12:02:40.833Z,5.40
2018-12-31T12:05:40.062Z,4.67
2018-12-31T12:08:39.695Z,3.97
2018-12-31T12:11:38.880Z,4.50
2018-12-31T12:14:38.139Z,4.50
2018-12-31T12:17:37.521Z,4.60
2018-12-31T12:20:37.012Z,5.37
2018-12-31T12:23:37.250Z,5.13
2018-12-31T12:26:36.479Z,4.27
2018-12-31T12:29:37.071Z,4.97
2018-12-31T12:32:37.057Z,6.10
2018-12-31T12:35:37.174Z,4.30
2018-12-31T12:38:37.781Z,4.70
2018-12-31T12:41:38.108Z,4.63
2018-12-31T12:44:37.532Z,4.53
2018-12-31T12:47:37.611Z,4.10
2018-12-31T12:50:37.605Z,4.00
2018-12-31T12:53:38.120Z,4.60
2018-12-31T12:56:40.443Z,4.83
2018-12-31T12:59:41.658Z,4.13
2018-12-31T13:02:42.293Z,4.10
2018-12-31T13:05:41.570Z,4.30
2018-12-31T13:08:40.979Z,5.03
2018-12-31T13:11:41.337Z,6.03
2018-12-31T13:14:42.799Z,4.53
2018-12-31T13:17:42.265Z,4.37
2018-12-31T13:20:42.075Z,4.00
2018-12-31T13:23:42.105Z,4.37
2018-12-31T13:26:43.772Z,6.10
2018-12-31T13:29:43.298Z,4.70
2018-12-31T13:32:43.156Z,4.50
2018-12-31T13:35:42.872Z,9.27
2018-12-31T13:38:43.566Z,10.57
2018-12-31T13:41:43.722Z,11.23
2018-12-31T13:44:43.589Z,7.97
2018-12-31T13:47:43.371Z,8.63
2018-12-31T13:50:43.079Z,6.97
2018-12-31T13:53:43.173Z,11.47
2018-12-31T13:56:45.014Z,7.63
2018-12-31T13:59:44.751Z,6.27
2018-12-31T14:02:45.747Z,8.23
2018-12-31T14:05:45.337Z,6.93
2018-12-31T14:08:45.603Z,5.93
2018-12-31T14:11:47.018Z,11.50
2018-12-31T14:14:46.538Z,8.53
2018-12-31T14:17:46.989Z,4.00
2018-12-31T14:20:50.257Z,4.77
2018-12-31T14:23:49.841Z,6.17
2018-12-31T14:26:49.117Z,3.93
2018-12-31T14:29:48.519Z,7.47
2018-12-31T14:32:47.819Z,6.17
2018-12-31T14:35:52.008Z,8.27
2018-12-31T14:38:52.075Z,10.93
2018-12-31T14:41:51.398Z,10.33
2018-12-31T14:44:52.795Z,10.27
2018-12-31T14:47:52.340Z,17.40
2018-12-31T14:50:52.612Z,9.00
2018-12-31T14:53:52.147Z,11.30
2018-12-31T14:56:52.279Z,8.73
2018-12-31T14:59:52.006Z,9.13
2018-12-31T15:02:51.463Z,8.37
2018-12-31T15:05:50.944Z,8.70
2018-12-31T15:08:50.589Z,10.57
2018-12-31T15:11:50.829Z,9.77
2018-12-31T15:14:51.362Z,12.50
2018-12-31T15:17:51.676Z,9.53
2018-12-31T15:20:51.095Z,8.07
2018-12-31T15:23:54.448Z,8.73
2018-12-31T15:26:54.043Z,8.83
2018-12-31T15:29:53.431Z,10.97
2018-12-31T15:32:54.873Z,9.17
2018-12-31T15:35:54.325Z,9.70
2018-12-31T15:38:55.665Z,8.87
2018-12-31T15:41:55.114Z,9.43
2018-12-31T15:44:54.923Z,7.13
2018-12-31T15:48:01.028Z,7.13
2018-12-31T15:51:01.369Z,10.17
2018-12-31T15:54:01.175Z,6.93
2018-12-31T15:57:01.282Z,7.27
2018-12-31T16:00:03.753Z,10.03
2018-12-31T16:03:05.950Z,10.30
2018-12-31T16:06:12.088Z,7.50
2018-12-31T16:09:11.461Z,7.23
2018-12-31T16:12:10.954Z,8.27
2018-12-31T16:15:10.480Z,7.33
2018-12-31T16:18:11.042Z,6.50
2018-12-31T16:21:10.898Z,7.97
2018-12-31T16:24:11.020Z,6.20
2018-12-31T16:27:11.466Z,6.70
2018-12-31T16:30:13.741Z,7.03
2018-12-31T16:33:13.200Z,8.07
2018-12-31T16:36:12.764Z,8.60
2018-12-31T16:39:14.262Z,7.90
2018-12-31T16:42:14.477Z,7.47
2018-12-31T16:45:14.180Z,7.10
2018-12-31T16:48:15.862Z,7.03
2018-12-31T16:51:16.072Z,6.60
2018-12-31T16:54:15.472Z,9.37
2018-12-31T16:57:16.925Z,7.53
2018-12-31T17:00:16.211Z,8.23
2018-12-31T17:03:16.596Z,8.13
2018-12-31T17:06:18.207Z,7.00
2018-12-31T17:09:17.481Z,7.40
2018-12-31T17:12:16.932Z,6.97
2018-12-31T17:15:18.274Z,6.67
2018-12-31T17:18:20.241Z,9.13
2018-12-31T17:21:20.384Z,7.67
2018-12-31T17:24:20.534Z,8.70
2018-12-31T17:27:19.940Z,6.87
2018-12-31T17:30:19.509Z,8.37
2018-12-31T17:33:18.959Z,6.73
2018-12-31T17:36:18.374Z,8.27
2018-12-31T17:39:17.817Z,8.27
2018-12-31T17:42:17.379Z,8.23
2018-12-31T17:45:22.923Z,8.10
2018-12-31T17:48:18.569Z,8.00
2018-12-31T17:51:18.347Z,9.23
2018-12-31T17:54:18.414Z,6.47
2018-12-31T17:57:18.519Z,8.80
2018-12-31T18:00:17.947Z,9.07
2018-12-31T18:03:17.174Z,8.00
2018-12-31T18:06:16.773Z,9.40
2018-12-31T18:09:16.990Z,10.87
2018-12-31T18:12:18.658Z,9.03
2018-12-31T18:15:18.118Z,10.03
2018-12-31T18:18:17.846Z,9.07
2018-12-31T18:21:17.075Z,10.37
2018-12-31T18:24:17.167Z,9.67
2018-12-31T18:27:17.309Z,10.37
2018-12-31T18:30:16.516Z,10.90
2018-12-31T18:37:04.747Z,13.93
2018-12-31T18:40:04.674Z,12.30
2018-12-31T18:43:06.872Z,11.97
2018-12-31T18:46:07.467Z,10.30
2018-12-31T18:49:07.443Z,8.83
2018-12-31T18:52:06.887Z,12.63
2018-12-31T18:55:06.707Z,12.43
2018-12-31T18:58:06.294Z,11.63
2018-12-31T19:01:09.908Z,12.83
2018-12-31T19:04:09.645Z,13.30
2018-12-31T19:07:09.418Z,12.10
2018-12-31T19:10:09.050Z,13.70
2018-12-31T19:13:08.351Z,13.30
2018-12-31T19:16:11.315Z,12.37
2018-12-31T19:19:11.226Z,13.00
2018-12-31T19:22:11.726Z,13.20
2018-12-31T19:25:11.348Z,14.57
2018-12-31T19:28:11.642Z,14.00
2018-12-31T19:31:11.261Z,13.60
2018-12-31T19:37:40.100Z,16.10
2018-12-31T19:40:44.863Z,13.73
2018-12-31T19:43:45.086Z,14.87
2018-12-31T19:46:52.167Z,14.70
2018-12-31T19:49:51.621Z,14.87
2018-12-31T19:52:52.294Z,14.53
2018-12-31T19:55:51.473Z,16.83
2018-12-31T19:58:51.911Z,16.53
2018-12-31T20:01:54.358Z,15.37
2018-12-31T20:04:53.843Z,16.40
2018-12-31T20:07:55.890Z,16.53
2018-12-31T20:10:55.187Z,16.20
2018-12-31T20:13:56.153Z,17.40
2018-12-31T20:16:56.258Z,16.10
2018-12-31T20:19:56.486Z,16.50
2018-12-31T20:22:56.342Z,15.27
2018-12-31T20:25:57.591Z,18.73
2018-12-31T20:28:57.147Z,15.83
2018-12-31T20:31:56.568Z,17.53
2018-12-31T20:34:56.063Z,20.37
2018-12-31T20:37:55.732Z,18.33
2018-12-31T20:40:57.050Z,17.83
2018-12-31T20:43:56.354Z,19.03
2018-12-31T20:46:55.920Z,19.10
2018-12-31T20:49:55.304Z,17.67
2018-12-31T20:52:54.833Z,18.77
2018-12-31T20:55:55.262Z,19.30
2018-12-31T20:58:55.586Z,20.17
2018-12-31T21:01:56.259Z,17.17
2018-12-31T21:04:55.650Z,17.80
2018-12-31T21:07:54.903Z,18.77
2018-12-31T21:10:54.204Z,17.60
2018-12-31T21:13:53.459Z,18.27
2018-12-31T21:16:53.675Z,18.00
2018-12-31T21:19:55.654Z,19.73
2018-12-31T21:22:55.090Z,19.37
2018-12-31T21:25:54.303Z,17.03
2018-12-31T21:28:57.999Z,18.97
2018-12-31T21:31:58.240Z,19.87
2018-12-31T21:34:58.092Z,18.20
2018-12-31T21:37:57.403Z,21.03
2018-12-31T21:40:56.676Z,22.03
2018-12-31T21:43:57.234Z,17.13
2018-12-31T21:46:56.771Z,19.23
2018-12-31T21:49:56.027Z,21.03
2018-12-31T21:52:56.279Z,22.03
2018-12-31T21:55:57.201Z,18.93
2018-12-31T21:58:56.497Z,17.97
2018-12-31T22:01:56.459Z,23.33
2018-12-31T22:04:56.650Z,21.33
2018-12-31T22:07:57.003Z,20.07
2018-12-31T22:10:56.262Z,23.00
2018-12-31T22:13:55.672Z,19.80
2018-12-31T22:16:55.136Z,18.87
2018-12-31T22:19:56.000Z,21.70
2018-12-31T22:22:55.989Z,19.57
2018-12-31T22:25:55.311Z,18.47
2018-12-31T22:28:56.899Z,18.93
2018-12-31T22:31:56.105Z,20.37
2018-12-31T22:34:55.825Z,18.53
2018-12-31T22:37:55.901Z,17.17
2018-12-31T22:40:55.642Z,20.37
2018-12-31T22:43:55.333Z,18.40
2018-12-31T22:46:58.672Z,18.80
2018-12-31T22:49:58.565Z,18.27
2018-12-31T22:52:59.330Z,18.13
2018-12-31T22:59:29.480Z,17.93
2018-12-31T23:02:30.992Z,19.27
2018-12-31T23:05:34.884Z,18.77
2018-12-31T23:08:34.122Z,22.30
2018-12-31T23:11:34.154Z,27.43
2018-12-31T23:14:35.535Z,35.60
2018-12-31T23:17:35.027Z,34.70
2018-12-31T23:20:34.531Z,38.70
2018-12-31T23:23:37.454Z,39.37
2018-12-31T23:26:38.253Z,46.73
2018-12-31T23:29:48.624Z,43.77
2018-12-31T23:32:49.218Z,57.13
2018-12-31T23:35:49.321Z,58.83
2018-12-31T23:38:49.664Z,65.23
2018-12-31T23:41:53.100Z,62.87
2018-12-31T23:44:53.200Z,71.27
2018-12-31T23:47:52.703Z,73.90
2018-12-31T23:50:52.619Z,70.57
2018-12-31T23:53:52.699Z,73.03
2018-12-31T23:56:52.029Z,67.97
2018-12-31T23:59:51.433Z,65.77
